Terminal Aerodrome Forecast
Issued by NWS

Current Version | Previous Version | Text Only | Print | Product List | Glossary On
Versions: 1 2 3 4 5 6 7 8 9 10 11 12 13 14 15
000
FTUS42 KMLB 252320
TAFISM
TAF
KISM 252320Z 2600/2624 24009KT P6SM FEW060 BKN300
     FM260900 23008KT P6SM SCT005 BKN020 OVC100
     FM261500 24015G22KT P6SM VCSH BKN035 OVC100
      AMD NOT SKED 2603/2612=

USA.gov is the U.S. government's official web portal to all federal, state and local government web resources and services.